sensor_id;sensor_type;location;lat;lon;timestamp;P1;durP1;ratioP1;P2;durP2;ratioP2
76955;SDS011;65894;53.206;-6.108;2023-02-28T00:00:22;6.60;;;1.85;;
76955;SDS011;65894;53.206;-6.108;2023-02-28T00:02:48;11.10;;;2.00;;
76955;SDS011;65894;53.206;-6.108;2023-02-28T00:05:15;9.88;;;1.70;;
76955;SDS011;65894;53.206;-6.108;2023-02-28T00:07:42;7.78;;;1.40;;
76955;SDS011;65894;53.206;-6.108;2023-02-28T00:10:09;12.50;;;2.15;;
76955;SDS011;65894;53.206;-6.108;2023-02-28T00:12:36;7.70;;;1.20;;
76955;SDS011;65894;53.206;-6.108;2023-02-28T00:15:05;9.73;;;1.27;;
76955;SDS011;65894;53.206;-6.108;2023-02-28T00:19:57;6.72;;;1.30;;
76955;SDS011;65894;53.206;-6.108;2023-02-28T00:22:29;5.38;;;1.23;;
76955;SDS011;65894;53.206;-6.108;2023-02-28T00:24:55;9.15;;;1.67;;
76955;SDS011;65894;53.206;-6.108;2023-02-28T00:27:21;7.80;;;1.20;;
76955;SDS011;65894;53.206;-6.108;2023-02-28T00:29:47;8.77;;;1.17;;
76955;SDS011;65894;53.206;-6.108;2023-02-28T00:32:12;5.50;;;1.00;;
76955;SDS011;65894;53.206;-6.108;2023-02-28T00:34:38;6.57;;;0.95;;
76955;SDS011;65894;53.206;-6.108;2023-02-28T00:37:07;5.05;;;1.02;;
76955;SDS011;65894;53.206;-6.108;2023-02-28T00:39:34;7.93;;;1.30;;
76955;SDS011;65894;53.206;-6.108;2023-02-28T00:42:02;6.00;;;1.40;;
76955;SDS011;65894;53.206;-6.108;2023-02-28T00:44:29;6.53;;;1.15;;
76955;SDS011;65894;53.206;-6.108;2023-02-28T00:46:54;5.25;;;1.20;;
76955;SDS011;65894;53.206;-6.108;2023-02-28T00:49:23;5.75;;;1.10;;
76955;SDS011;65894;53.206;-6.108;2023-02-28T00:51:49;8.75;;;1.30;;
76955;SDS011;65894;53.206;-6.108;2023-02-28T00:54:15;4.53;;;0.85;;
76955;SDS011;65894;53.206;-6.108;2023-02-28T00:56:41;11.20;;;1.45;;
76955;SDS011;65894;53.206;-6.108;2023-02-28T00:59:06;7.18;;;0.93;;
76955;SDS011;65894;53.206;-6.108;2023-02-28T01:01:32;6.05;;;1.10;;
76955;SDS011;65894;53.206;-6.108;2023-02-28T01:03:58;6.25;;;1.10;;
76955;SDS011;65894;53.206;-6.108;2023-02-28T01:06:23;6.80;;;1.10;;
76955;SDS011;65894;53.206;-6.108;2023-02-28T01:08:49;6.53;;;1.33;;
76955;SDS011;65894;53.206;-6.108;2023-02-28T01:11:15;4.88;;;1.20;;
76955;SDS011;65894;53.206;-6.108;2023-02-28T01:13:42;5.68;;;1.27;;
76955;SDS011;65894;53.206;-6.108;2023-02-28T01:16:11;5.10;;;1.20;;
76955;SDS011;65894;53.206;-6.108;2023-02-28T01:18:38;4.40;;;1.30;;
76955;SDS011;65894;53.206;-6.108;2023-02-28T01:21:08;5.72;;;1.00;;
76955;SDS011;65894;53.206;-6.108;2023-02-28T01:23:36;4.97;;;1.05;;
76955;SDS011;65894;53.206;-6.108;2023-02-28T01:26:05;6.30;;;1.20;;
76955;SDS011;65894;53.206;-6.108;2023-02-28T01:28:32;5.95;;;1.10;;
76955;SDS011;65894;53.206;-6.108;2023-02-28T01:30:58;3.67;;;0.80;;
76955;SDS011;65894;53.206;-6.108;2023-02-28T01:33:24;3.00;;;0.80;;
76955;SDS011;65894;53.206;-6.108;2023-02-28T01:35:58;2.20;;;0.80;;
76955;SDS011;65894;53.206;-6.108;2023-02-28T01:38:25;2.78;;;0.90;;
76955;SDS011;65894;53.206;-6.108;2023-02-28T01:40:53;3.15;;;0.73;;
76955;SDS011;65894;53.206;-6.108;2023-02-28T01:45:49;3.83;;;0.80;;
76955;SDS011;65894;53.206;-6.108;2023-02-28T01:48:15;5.00;;;0.90;;
76955;SDS011;65894;53.206;-6.108;2023-02-28T01:50:42;3.72;;;1.00;;
76955;SDS011;65894;53.206;-6.108;2023-02-28T01:53:10;2.67;;;0.70;;
76955;SDS011;65894;53.206;-6.108;2023-02-28T01:55:40;4.15;;;0.70;;
76955;SDS011;65894;53.206;-6.108;2023-02-28T01:58:07;3.42;;;0.70;;
76955;SDS011;65894;53.206;-6.108;2023-02-28T02:00:34;2.00;;;0.75;;
76955;SDS011;65894;53.206;-6.108;2023-02-28T02:03:01;2.35;;;0.70;;
76955;SDS011;65894;53.206;-6.108;2023-02-28T02:05:32;3.40;;;0.85;;
76955;SDS011;65894;53.206;-6.108;2023-02-28T02:08:03;1.48;;;0.70;;
76955;SDS011;65894;53.206;-6.108;2023-02-28T02:10:32;3.13;;;0.57;;
76955;SDS011;65894;53.206;-6.108;2023-02-28T02:35:32;1.50;;;0.45;;
76955;SDS011;65894;53.206;-6.108;2023-02-28T02:41:04;3.15;;;0.60;;
76955;SDS011;65894;53.206;-6.108;2023-02-28T02:43:58;4.00;;;0.93;;
76955;SDS011;65894;53.206;-6.108;2023-02-28T02:46:36;2.15;;;0.60;;
76955;SDS011;65894;53.206;-6.108;2023-02-28T02:49:07;2.50;;;0.60;;
76955;SDS011;65894;53.206;-6.108;2023-02-28T02:51:36;1.98;;;0.50;;
76955;SDS011;65894;53.206;-6.108;2023-02-28T02:56:41;2.78;;;0.70;;
76955;SDS011;65894;53.206;-6.108;2023-02-28T02:59:11;3.13;;;0.70;;
76955;SDS011;65894;53.206;-6.108;2023-02-28T03:01:39;2.50;;;0.50;;
76955;SDS011;65894;53.206;-6.108;2023-02-28T03:04:09;2.72;;;0.60;;
76955;SDS011;65894;53.206;-6.108;2023-02-28T03:06:37;2.72;;;0.70;;
76955;SDS011;65894;53.206;-6.108;2023-02-28T03:09:02;2.13;;;0.60;;
76955;SDS011;65894;53.206;-6.108;2023-02-28T03:11:29;2.10;;;0.60;;
76955;SDS011;65894;53.206;-6.108;2023-02-28T03:19:41;2.35;;;0.60;;
76955;SDS011;65894;53.206;-6.108;2023-02-28T03:27:38;3.13;;;0.43;;
76955;SDS011;65894;53.206;-6.108;2023-02-28T03:32:51;2.65;;;0.60;;
76955;SDS011;65894;53.206;-6.108;2023-02-28T03:35:22;2.08;;;0.63;;
76955;SDS011;65894;53.206;-6.108;2023-02-28T03:37:50;2.50;;;0.40;;
76955;SDS011;65894;53.206;-6.108;2023-02-28T03:40:23;2.22;;;0.80;;
76955;SDS011;65894;53.206;-6.108;2023-02-28T03:42:54;2.95;;;0.63;;
76955;SDS011;65894;53.206;-6.108;2023-02-28T03:45:25;1.63;;;0.57;;
76955;SDS011;65894;53.206;-6.108;2023-02-28T03:48:37;1.50;;;0.40;;
76955;SDS011;65894;53.206;-6.108;2023-02-28T03:50:45;1.25;;;0.52;;
76955;SDS011;65894;53.206;-6.108;2023-02-28T03:54:15;2.00;;;0.40;;
76955;SDS011;65894;53.206;-6.108;2023-02-28T03:58:53;1.35;;;0.45;;
76955;SDS011;65894;53.206;-6.108;2023-02-28T04:01:23;1.75;;;0.40;;
76955;SDS011;65894;53.206;-6.108;2023-02-28T04:03:53;1.13;;;0.40;;
76955;SDS011;65894;53.206;-6.108;2023-02-28T04:06:19;1.60;;;0.50;;
76955;SDS011;65894;53.206;-6.108;2023-02-28T04:08:46;3.25;;;0.50;;
76955;SDS011;65894;53.206;-6.108;2023-02-28T04:11:23;1.50;;;0.32;;
76955;SDS011;65894;53.206;-6.108;2023-02-28T04:13:58;0.68;;;0.40;;
76955;SDS011;65894;53.206;-6.108;2023-02-28T04:16:23;2.28;;;0.50;;
76955;SDS011;65894;53.206;-6.108;2023-02-28T04:18:49;2.40;;;0.40;;
76955;SDS011;65894;53.206;-6.108;2023-02-28T04:21:14;1.48;;;0.60;;
76955;SDS011;65894;53.206;-6.108;2023-02-28T04:23:40;0.93;;;0.30;;
76955;SDS011;65894;53.206;-6.108;2023-02-28T04:26:05;1.05;;;0.30;;
76955;SDS011;65894;53.206;-6.108;2023-02-28T04:28:32;1.20;;;0.40;;
76955;SDS011;65894;53.206;-6.108;2023-02-28T04:30:59;1.65;;;0.45;;
76955;SDS011;65894;53.206;-6.108;2023-02-28T04:33:26;1.45;;;0.50;;
76955;SDS011;65894;53.206;-6.108;2023-02-28T04:36:02;1.20;;;0.40;;
76955;SDS011;65894;53.206;-6.108;2023-02-28T04:38:32;1.98;;;0.40;;
76955;SDS011;65894;53.206;-6.108;2023-02-28T04:40:59;3.92;;;0.50;;
76955;SDS011;65894;53.206;-6.108;2023-02-28T04:43:25;1.05;;;0.30;;
76955;SDS011;65894;53.206;-6.108;2023-02-28T04:45:52;1.42;;;0.40;;
76955;SDS011;65894;53.206;-6.108;2023-02-28T04:48:22;0.40;;;0.30;;
76955;SDS011;65894;53.206;-6.108;2023-02-28T04:50:49;0.40;;;0.20;;
76955;SDS011;65894;53.206;-6.108;2023-02-28T04:53:14;2.13;;;0.45;;
76955;SDS011;65894;53.206;-6.108;2023-02-28T04:55:40;1.95;;;0.50;;
76955;SDS011;65894;53.206;-6.108;2023-02-28T04:58:05;0.68;;;0.28;;
76955;SDS011;65894;53.206;-6.108;2023-02-28T05:00:31;0.60;;;0.30;;
76955;SDS011;65894;53.206;-6.108;2023-02-28T05:02:56;0.90;;;0.45;;
76955;SDS011;65894;53.206;-6.108;2023-02-28T05:05:22;1.65;;;0.57;;
76955;SDS011;65894;53.206;-6.108;2023-02-28T05:07:47;1.63;;;0.52;;
76955;SDS011;65894;53.206;-6.108;2023-02-28T05:10:13;2.47;;;0.50;;
76955;SDS011;65894;53.206;-6.108;2023-02-28T05:12:38;1.75;;;0.38;;
76955;SDS011;65894;53.206;-6.108;2023-02-28T05:15:04;0.70;;;0.28;;
76955;SDS011;65894;53.206;-6.108;2023-02-28T05:17:30;1.20;;;0.40;;
76955;SDS011;65894;53.206;-6.108;2023-02-28T05:19:56;1.95;;;0.43;;
76955;SDS011;65894;53.206;-6.108;2023-02-28T05:22:22;3.35;;;0.52;;
76955;SDS011;65894;53.206;-6.108;2023-02-28T05:24:47;1.85;;;0.32;;
76955;SDS011;65894;53.206;-6.108;2023-02-28T05:27:13;0.90;;;0.30;;
76955;SDS011;65894;53.206;-6.108;2023-02-28T05:29:38;2.08;;;0.30;;
76955;SDS011;65894;53.206;-6.108;2023-02-28T05:32:10;1.20;;;0.32;;
76955;SDS011;65894;53.206;-6.108;2023-02-28T05:34:37;1.20;;;0.55;;
76955;SDS011;65894;53.206;-6.108;2023-02-28T05:37:03;2.03;;;0.50;;
76955;SDS011;65894;53.206;-6.108;2023-02-28T05:39:29;1.50;;;0.50;;
76955;SDS011;65894;53.206;-6.108;2023-02-28T05:41:54;1.65;;;0.40;;
76955;SDS011;65894;53.206;-6.108;2023-02-28T05:44:20;1.20;;;0.40;;
76955;SDS011;65894;53.206;-6.108;2023-02-28T05:46:45;1.05;;;0.55;;
76955;SDS011;65894;53.206;-6.108;2023-02-28T05:49:11;0.73;;;0.35;;
76955;SDS011;65894;53.206;-6.108;2023-02-28T05:51:37;0.60;;;0.30;;
76955;SDS011;65894;53.206;-6.108;2023-02-28T05:54:05;0.30;;;0.30;;
76955;SDS011;65894;53.206;-6.108;2023-02-28T05:56:31;1.40;;;0.65;;
76955;SDS011;65894;53.206;-6.108;2023-02-28T05:58:57;1.13;;;0.43;;
76955;SDS011;65894;53.206;-6.108;2023-02-28T06:01:24;2.40;;;0.30;;
76955;SDS011;65894;53.206;-6.108;2023-02-28T06:04:00;1.33;;;0.25;;
76955;SDS011;65894;53.206;-6.108;2023-02-28T06:06:28;0.82;;;0.20;;
76955;SDS011;65894;53.206;-6.108;2023-02-28T06:08:55;0.35;;;0.28;;
76955;SDS011;65894;53.206;-6.108;2023-02-28T06:11:21;1.20;;;0.22;;
76955;SDS011;65894;53.206;-6.108;2023-02-28T06:13:47;1.27;;;0.35;;
76955;SDS011;65894;53.206;-6.108;2023-02-28T06:16:12;1.77;;;0.32;;
76955;SDS011;65894;53.206;-6.108;2023-02-28T06:18:38;0.60;;;0.20;;
76955;SDS011;65894;53.206;-6.108;2023-02-28T06:21:04;0.45;;;0.30;;
76955;SDS011;65894;53.206;-6.108;2023-02-28T06:23:29;0.45;;;0.20;;
76955;SDS011;65894;53.206;-6.108;2023-02-28T06:25:56;0.73;;;0.22;;
76955;SDS011;65894;53.206;-6.108;2023-02-28T06:28:24;0.13;;;0.13;;
76955;SDS011;65894;53.206;-6.108;2023-02-28T06:30:51;1.58;;;0.32;;
76955;SDS011;65894;53.206;-6.108;2023-02-28T06:33:16;1.08;;;0.35;;
76955;SDS011;65894;53.206;-6.108;2023-02-28T06:35:46;2.20;;;0.30;;
76955;SDS011;65894;53.206;-6.108;2023-02-28T06:38:13;2.60;;;0.25;;
76955;SDS011;65894;53.206;-6.108;2023-02-28T06:40:38;1.88;;;0.32;;
76955;SDS011;65894;53.206;-6.108;2023-02-28T06:43:04;1.45;;;0.40;;
76955;SDS011;65894;53.206;-6.108;2023-02-28T06:45:29;0.65;;;0.20;;
76955;SDS011;65894;53.206;-6.108;2023-02-28T06:47:55;1.17;;;0.30;;
76955;SDS011;65894;53.206;-6.108;2023-02-28T06:50:20;0.98;;;0.30;;
76955;SDS011;65894;53.206;-6.108;2023-02-28T06:52:46;0.63;;;0.30;;
76955;SDS011;65894;53.206;-6.108;2023-02-28T06:55:13;0.47;;;0.25;;
76955;SDS011;65894;53.206;-6.108;2023-02-28T06:57:38;1.65;;;0.40;;
76955;SDS011;65894;53.206;-6.108;2023-02-28T07:00:06;1.23;;;0.20;;
76955;SDS011;65894;53.206;-6.108;2023-02-28T07:02:33;0.43;;;0.30;;
76955;SDS011;65894;53.206;-6.108;2023-02-28T07:05:00;1.35;;;0.20;;
76955;SDS011;65894;53.206;-6.108;2023-02-28T07:07:25;0.90;;;0.20;;
76955;SDS011;65894;53.206;-6.108;2023-02-28T07:09:51;1.55;;;0.28;;
76955;SDS011;65894;53.206;-6.108;2023-02-28T07:12:16;1.67;;;0.60;;
76955;SDS011;65894;53.206;-6.108;2023-02-28T07:14:42;0.75;;;0.28;;
76955;SDS011;65894;53.206;-6.108;2023-02-28T07:17:08;1.15;;;0.28;;
76955;SDS011;65894;53.206;-6.108;2023-02-28T07:19:36;0.93;;;0.20;;
76955;SDS011;65894;53.206;-6.108;2023-02-28T07:22:02;2.00;;;0.40;;
76955;SDS011;65894;53.206;-6.108;2023-02-28T07:24:28;1.25;;;0.28;;
76955;SDS011;65894;53.206;-6.108;2023-02-28T07:26:54;0.60;;;0.20;;
76955;SDS011;65894;53.206;-6.108;2023-02-28T07:29:20;2.47;;;0.40;;
76955;SDS011;65894;53.206;-6.108;2023-02-28T07:31:46;1.20;;;0.25;;
76955;SDS011;65894;53.206;-6.108;2023-02-28T07:34:11;2.72;;;0.32;;
76955;SDS011;65894;53.206;-6.108;2023-02-28T07:36:38;3.00;;;0.40;;
76955;SDS011;65894;53.206;-6.108;2023-02-28T07:39:03;1.55;;;0.32;;
76955;SDS011;65894;53.206;-6.108;2023-02-28T07:41:29;3.90;;;0.52;;
76955;SDS011;65894;53.206;-6.108;2023-02-28T07:43:58;9.85;;;1.05;;
76955;SDS011;65894;53.206;-6.108;2023-02-28T07:46:24;8.45;;;0.90;;
76955;SDS011;65894;53.206;-6.108;2023-02-28T07:48:51;10.50;;;1.38;;
76955;SDS011;65894;53.206;-6.108;2023-02-28T07:51:18;8.50;;;1.00;;
76955;SDS011;65894;53.206;-6.108;2023-02-28T07:53:43;9.73;;;0.80;;
76955;SDS011;65894;53.206;-6.108;2023-02-28T07:56:09;9.05;;;1.20;;
76955;SDS011;65894;53.206;-6.108;2023-02-28T07:58:35;8.82;;;1.15;;
76955;SDS011;65894;53.206;-6.108;2023-02-28T08:01:08;11.13;;;1.02;;
76955;SDS011;65894;53.206;-6.108;2023-02-28T08:03:35;4.68;;;0.73;;
76955;SDS011;65894;53.206;-6.108;2023-02-28T08:06:05;5.25;;;0.98;;
76955;SDS011;65894;53.206;-6.108;2023-02-28T08:08:32;9.48;;;0.80;;
76955;SDS011;65894;53.206;-6.108;2023-02-28T08:11:01;6.13;;;0.60;;
76955;SDS011;65894;53.206;-6.108;2023-02-28T08:13:28;4.50;;;0.82;;
76955;SDS011;65894;53.206;-6.108;2023-02-28T08:15:54;4.13;;;0.98;;
76955;SDS011;65894;53.206;-6.108;2023-02-28T08:18:20;4.50;;;0.80;;
76955;SDS011;65894;53.206;-6.108;2023-02-28T08:20:46;2.83;;;0.40;;
76955;SDS011;65894;53.206;-6.108;2023-02-28T08:23:12;2.55;;;0.50;;
76955;SDS011;65894;53.206;-6.108;2023-02-28T08:25:37;3.17;;;0.68;;
76955;SDS011;65894;53.206;-6.108;2023-02-28T08:28:03;4.28;;;0.40;;
76955;SDS011;65894;53.206;-6.108;2023-02-28T08:30:28;3.88;;;0.60;;
76955;SDS011;65894;53.206;-6.108;2023-02-28T08:32:54;3.65;;;0.50;;
76955;SDS011;65894;53.206;-6.108;2023-02-28T08:35:20;4.25;;;0.45;;
76955;SDS011;65894;53.206;-6.108;2023-02-28T08:37:47;3.85;;;0.50;;
76955;SDS011;65894;53.206;-6.108;2023-02-28T08:40:14;4.22;;;0.40;;
76955;SDS011;65894;53.206;-6.108;2023-02-28T08:42:46;3.97;;;0.57;;
76955;SDS011;65894;53.206;-6.108;2023-02-28T08:45:13;2.33;;;0.45;;
76955;SDS011;65894;53.206;-6.108;2023-02-28T08:47:39;4.07;;;0.80;;
76955;SDS011;65894;53.206;-6.108;2023-02-28T08:50:06;1.38;;;0.32;;
76955;SDS011;65894;53.206;-6.108;2023-02-28T08:52:32;3.85;;;0.40;;
76955;SDS011;65894;53.206;-6.108;2023-02-28T08:54:58;4.90;;;0.45;;
76955;SDS011;65894;53.206;-6.108;2023-02-28T08:57:23;2.70;;;0.57;;
76955;SDS011;65894;53.206;-6.108;2023-02-28T08:59:51;2.60;;;0.47;;
76955;SDS011;65894;53.206;-6.108;2023-02-28T09:02:17;5.45;;;0.50;;
76955;SDS011;65894;53.206;-6.108;2023-02-28T09:04:42;4.82;;;0.40;;
76955;SDS011;65894;53.206;-6.108;2023-02-28T09:07:10;6.25;;;0.60;;
76955;SDS011;65894;53.206;-6.108;2023-02-28T09:09:36;7.55;;;0.68;;
76955;SDS011;65894;53.206;-6.108;2023-02-28T09:12:02;9.57;;;0.90;;
76955;SDS011;65894;53.206;-6.108;2023-02-28T09:14:27;10.40;;;0.90;;
76955;SDS011;65894;53.206;-6.108;2023-02-28T09:16:53;6.80;;;0.80;;
76955;SDS011;65894;53.206;-6.108;2023-02-28T09:19:19;7.55;;;0.90;;
76955;SDS011;65894;53.206;-6.108;2023-02-28T09:21:45;5.22;;;0.63;;
76955;SDS011;65894;53.206;-6.108;2023-02-28T09:24:10;5.93;;;0.85;;
76955;SDS011;65894;53.206;-6.108;2023-02-28T09:26:39;6.65;;;0.70;;
76955;SDS011;65894;53.206;-6.108;2023-02-28T09:29:05;7.93;;;0.70;;
76955;SDS011;65894;53.206;-6.108;2023-02-28T09:31:31;4.82;;;0.60;;
76955;SDS011;65894;53.206;-6.108;2023-02-28T09:33:57;6.10;;;0.90;;
76955;SDS011;65894;53.206;-6.108;2023-02-28T09:36:24;10.25;;;0.77;;
76955;SDS011;65894;53.206;-6.108;2023-02-28T09:38:51;4.82;;;0.65;;
76955;SDS011;65894;53.206;-6.108;2023-02-28T09:43:44;4.38;;;0.50;;
76955;SDS011;65894;53.206;-6.108;2023-02-28T09:49:22;9.43;;;0.73;;
76955;SDS011;65894;53.206;-6.108;2023-02-28T09:54:35;1.55;;;0.35;;
76955;SDS011;65894;53.206;-6.108;2023-02-28T10:00:02;3.17;;;0.40;;
76955;SDS011;65894;53.206;-6.108;2023-02-28T10:02:49;4.07;;;0.47;;
76955;SDS011;65894;53.206;-6.108;2023-02-28T10:05:20;4.97;;;0.40;;
76955;SDS011;65894;53.206;-6.108;2023-02-28T10:10:27;4.25;;;0.30;;
76955;SDS011;65894;53.206;-6.108;2023-02-28T10:12:58;2.20;;;0.35;;
76955;SDS011;65894;53.206;-6.108;2023-02-28T10:15:27;3.78;;;0.40;;
76955;SDS011;65894;53.206;-6.108;2023-02-28T10:18:00;4.65;;;0.60;;
76955;SDS011;65894;53.206;-6.108;2023-02-28T10:20:30;3.35;;;0.45;;
76955;SDS011;65894;53.206;-6.108;2023-02-28T10:25:40;1.73;;;0.50;;
76955;SDS011;65894;53.206;-6.108;2023-02-28T10:28:16;2.72;;;0.45;;
76955;SDS011;65894;53.206;-6.108;2023-02-28T10:30:46;7.35;;;0.63;;
76955;SDS011;65894;53.206;-6.108;2023-02-28T10:35:50;1.58;;;0.30;;
76955;SDS011;65894;53.206;-6.108;2023-02-28T10:38:21;2.15;;;0.28;;
76955;SDS011;65894;53.206;-6.108;2023-02-28T10:40:51;2.83;;;0.35;;
76955;SDS011;65894;53.206;-6.108;2023-02-28T10:43:27;1.13;;;0.30;;
76955;SDS011;65894;53.206;-6.108;2023-02-28T10:45:57;2.88;;;0.50;;
76955;SDS011;65894;53.206;-6.108;2023-02-28T10:51:02;2.30;;;0.30;;
76955;SDS011;65894;53.206;-6.108;2023-02-28T10:53:34;3.53;;;0.40;;
76955;SDS011;65894;53.206;-6.108;2023-02-28T10:56:12;1.10;;;0.55;;
76955;SDS011;65894;53.206;-6.108;2023-02-28T11:01:18;2.47;;;0.30;;
76955;SDS011;65894;53.206;-6.108;2023-02-28T11:06:58;2.28;;;0.50;;
76955;SDS011;65894;53.206;-6.108;2023-02-28T11:09:29;0.93;;;0.30;;
76955;SDS011;65894;53.206;-6.108;2023-02-28T11:12:00;1.55;;;0.40;;
76955;SDS011;65894;53.206;-6.108;2023-02-28T11:14:30;1.17;;;0.30;;
76955;SDS011;65894;53.206;-6.108;2023-02-28T11:17:02;1.63;;;0.32;;
76955;SDS011;65894;53.206;-6.108;2023-02-28T11:19:53;1.85;;;0.40;;
76955;SDS011;65894;53.206;-6.108;2023-02-28T11:22:23;4.47;;;0.98;;
76955;SDS011;65894;53.206;-6.108;2023-02-28T11:24:54;1.35;;;0.30;;
76955;SDS011;65894;53.206;-6.108;2023-02-28T11:32:49;5.05;;;0.65;;
76955;SDS011;65894;53.206;-6.108;2023-02-28T11:35:35;3.97;;;0.50;;
76955;SDS011;65894;53.206;-6.108;2023-02-28T11:38:05;3.53;;;0.40;;
76955;SDS011;65894;53.206;-6.108;2023-02-28T11:43:27;5.35;;;0.70;;
76955;SDS011;65894;53.206;-6.108;2023-02-28T11:46:12;5.32;;;0.80;;
76955;SDS011;65894;53.206;-6.108;2023-02-28T12:00:06;13.05;;;0.95;;
76955;SDS011;65894;53.206;-6.108;2023-02-28T12:03:06;10.95;;;1.10;;
76955;SDS011;65894;53.206;-6.108;2023-02-28T12:11:51;30.48;;;2.50;;
76955;SDS011;65894;53.206;-6.108;2023-02-28T12:19:34;26.00;;;2.33;;
76955;SDS011;65894;53.206;-6.108;2023-02-28T12:27:46;25.95;;;2.17;;
76955;SDS011;65894;53.206;-6.108;2023-02-28T12:30:14;17.80;;;1.52;;
76955;SDS011;65894;53.206;-6.108;2023-02-28T12:32:56;15.65;;;1.50;;
76955;SDS011;65894;53.206;-6.108;2023-02-28T12:35:33;13.55;;;1.50;;
76955;SDS011;65894;53.206;-6.108;2023-02-28T12:38:06;11.13;;;1.00;;
76955;SDS011;65894;53.206;-6.108;2023-02-28T12:40:48;15.25;;;1.40;;
76955;SDS011;65894;53.206;-6.108;2023-02-28T12:43:19;10.90;;;1.33;;
76955;SDS011;65894;53.206;-6.108;2023-02-28T12:45:52;9.57;;;1.08;;
76955;SDS011;65894;53.206;-6.108;2023-02-28T12:48:40;8.57;;;0.95;;
76955;SDS011;65894;53.206;-6.108;2023-02-28T12:51:11;7.70;;;1.00;;
76955;SDS011;65894;53.206;-6.108;2023-02-28T12:59:26;8.88;;;1.05;;
76955;SDS011;65894;53.206;-6.108;2023-02-28T13:10:13;6.30;;;0.80;;
76955;SDS011;65894;53.206;-6.108;2023-02-28T13:12:51;6.00;;;0.80;;
76955;SDS011;65894;53.206;-6.108;2023-02-28T13:15:25;5.40;;;0.80;;
76955;SDS011;65894;53.206;-6.108;2023-02-28T13:17:57;4.70;;;0.60;;
76955;SDS011;65894;53.206;-6.108;2023-02-28T13:20:57;2.85;;;0.43;;
76955;SDS011;65894;53.206;-6.108;2023-02-28T13:34:27;2.75;;;0.50;;
76955;SDS011;65894;53.206;-6.108;2023-02-28T13:37:29;3.55;;;0.50;;
76955;SDS011;65894;53.206;-6.108;2023-02-28T13:39:48;3.78;;;0.50;;
76955;SDS011;65894;53.206;-6.108;2023-02-28T13:47:35;3.80;;;0.60;;
76955;SDS011;65894;53.206;-6.108;2023-02-28T14:06:09;2.55;;;0.70;;
76955;SDS011;65894;53.206;-6.108;2023-02-28T14:08:35;3.40;;;0.35;;
76955;SDS011;65894;53.206;-6.108;2023-02-28T14:11:08;2.20;;;0.40;;
76955;SDS011;65894;53.206;-6.108;2023-02-28T14:13:48;1.67;;;0.50;;
76955;SDS011;65894;53.206;-6.108;2023-02-28T14:16:23;3.10;;;0.50;;
76955;SDS011;65894;53.206;-6.108;2023-02-28T14:18:55;1.13;;;0.40;;
76955;SDS011;65894;53.206;-6.108;2023-02-28T14:21:25;2.67;;;0.30;;
76955;SDS011;65894;53.206;-6.108;2023-02-28T14:29:21;1.55;;;0.60;;
76955;SDS011;65894;53.206;-6.108;2023-02-28T14:37:32;3.35;;;0.63;;
76955;SDS011;65894;53.206;-6.108;2023-02-28T14:40:02;1.58;;;0.47;;
76955;SDS011;65894;53.206;-6.108;2023-02-28T14:42:32;3.30;;;0.43;;
76955;SDS011;65894;53.206;-6.108;2023-02-28T14:44:59;2.20;;;0.40;;
76955;SDS011;65894;53.206;-6.108;2023-02-28T14:47:30;4.10;;;0.57;;
76955;SDS011;65894;53.206;-6.108;2023-02-28T14:49:58;1.55;;;0.43;;
76955;SDS011;65894;53.206;-6.108;2023-02-28T14:52:26;21.70;;;1.90;;
76955;SDS011;65894;53.206;-6.108;2023-02-28T14:54:55;5.32;;;0.60;;
76955;SDS011;65894;53.206;-6.108;2023-02-28T15:00:46;10.60;;;1.05;;
76955;SDS011;65894;53.206;-6.108;2023-02-28T15:02:50;13.05;;;1.58;;
76955;SDS011;65894;53.206;-6.108;2023-02-28T15:05:20;11.73;;;0.90;;
76955;SDS011;65894;53.206;-6.108;2023-02-28T15:08:28;16.50;;;1.50;;
76955;SDS011;65894;53.206;-6.108;2023-02-28T15:10:57;8.18;;;1.02;;
76955;SDS011;65894;53.206;-6.108;2023-02-28T15:13:45;10.02;;;1.10;;
76955;SDS011;65894;53.206;-6.108;2023-02-28T15:16:22;6.70;;;0.77;;
76955;SDS011;65894;53.206;-6.108;2023-02-28T15:18:59;8.88;;;1.15;;
76955;SDS011;65894;53.206;-6.108;2023-02-28T15:26:42;6.97;;;0.90;;
76955;SDS011;65894;53.206;-6.108;2023-02-28T15:29:15;7.35;;;1.02;;
76955;SDS011;65894;53.206;-6.108;2023-02-28T15:31:49;4.07;;;0.52;;
76955;SDS011;65894;53.206;-6.108;2023-02-28T15:34:20;4.00;;;0.63;;
76955;SDS011;65894;53.206;-6.108;2023-02-28T15:37:26;5.55;;;0.77;;
76955;SDS011;65894;53.206;-6.108;2023-02-28T15:39:56;4.30;;;0.80;;
76955;SDS011;65894;53.206;-6.108;2023-02-28T15:42:27;5.97;;;0.52;;
76955;SDS011;65894;53.206;-6.108;2023-02-28T15:44:53;2.92;;;0.50;;
76955;SDS011;65894;53.206;-6.108;2023-02-28T15:47:20;5.25;;;0.60;;
76955;SDS011;65894;53.206;-6.108;2023-02-28T15:49:52;4.78;;;0.73;;
76955;SDS011;65894;53.206;-6.108;2023-02-28T15:52:45;2.85;;;0.60;;
76955;SDS011;65894;53.206;-6.108;2023-02-28T15:57:42;4.28;;;0.70;;
76955;SDS011;65894;53.206;-6.108;2023-02-28T16:00:11;3.75;;;0.60;;
76955;SDS011;65894;53.206;-6.108;2023-02-28T16:02:39;4.68;;;0.65;;
76955;SDS011;65894;53.206;-6.108;2023-02-28T16:07:31;5.38;;;0.60;;
76955;SDS011;65894;53.206;-6.108;2023-02-28T16:09:57;1.77;;;0.50;;
76955;SDS011;65894;53.206;-6.108;2023-02-28T16:12:25;2.70;;;0.50;;
76955;SDS011;65894;53.206;-6.108;2023-02-28T16:14:55;4.07;;;0.57;;
76955;SDS011;65894;53.206;-6.108;2023-02-28T16:17:27;1.70;;;0.45;;
76955;SDS011;65894;53.206;-6.108;2023-02-28T16:19:54;3.25;;;0.73;;
76955;SDS011;65894;53.206;-6.108;2023-02-28T16:22:20;7.05;;;0.75;;
76955;SDS011;65894;53.206;-6.108;2023-02-28T16:24:47;4.00;;;0.60;;
76955;SDS011;65894;53.206;-6.108;2023-02-28T16:27:15;4.50;;;0.88;;
76955;SDS011;65894;53.206;-6.108;2023-02-28T16:29:41;2.58;;;0.60;;
76955;SDS011;65894;53.206;-6.108;2023-02-28T16:32:07;3.33;;;0.60;;
76955;SDS011;65894;53.206;-6.108;2023-02-28T16:34:33;9.32;;;1.20;;
76955;SDS011;65894;53.206;-6.108;2023-02-28T16:36:58;5.25;;;0.93;;
76955;SDS011;65894;53.206;-6.108;2023-02-28T16:39:24;8.50;;;1.02;;
76955;SDS011;65894;53.206;-6.108;2023-02-28T16:41:49;9.93;;;1.00;;
76955;SDS011;65894;53.206;-6.108;2023-02-28T16:44:37;6.13;;;1.08;;
76955;SDS011;65894;53.206;-6.108;2023-02-28T16:47:03;10.50;;;1.60;;
76955;SDS011;65894;53.206;-6.108;2023-02-28T16:49:29;6.05;;;1.05;;
76955;SDS011;65894;53.206;-6.108;2023-02-28T16:51:55;6.50;;;1.30;;
76955;SDS011;65894;53.206;-6.108;2023-02-28T16:54:20;13.38;;;1.60;;
76955;SDS011;65894;53.206;-6.108;2023-02-28T16:56:47;7.13;;;1.20;;
76955;SDS011;65894;53.206;-6.108;2023-02-28T16:59:13;9.68;;;2.05;;
76955;SDS011;65894;53.206;-6.108;2023-02-28T17:04:08;7.97;;;1.75;;
76955;SDS011;65894;53.206;-6.108;2023-02-28T17:06:36;7.03;;;1.52;;
76955;SDS011;65894;53.206;-6.108;2023-02-28T17:09:02;12.55;;;1.75;;
76955;SDS011;65894;53.206;-6.108;2023-02-28T17:11:27;13.98;;;1.60;;
76955;SDS011;65894;53.206;-6.108;2023-02-28T17:13:53;8.18;;;1.73;;
76955;SDS011;65894;53.206;-6.108;2023-02-28T17:16:25;10.50;;;1.75;;
76955;SDS011;65894;53.206;-6.108;2023-02-28T17:18:57;9.57;;;1.80;;
76955;SDS011;65894;53.206;-6.108;2023-02-28T17:21:24;8.07;;;1.70;;
76955;SDS011;65894;53.206;-6.108;2023-02-28T17:23:50;9.50;;;1.58;;
76955;SDS011;65894;53.206;-6.108;2023-02-28T17:26:16;8.95;;;1.40;;
76955;SDS011;65894;53.206;-6.108;2023-02-28T17:28:47;10.30;;;1.80;;
76955;SDS011;65894;53.206;-6.108;2023-02-28T17:31:14;12.80;;;1.75;;
76955;SDS011;65894;53.206;-6.108;2023-02-28T17:33:40;11.18;;;1.77;;
76955;SDS011;65894;53.206;-6.108;2023-02-28T17:36:06;11.30;;;1.67;;
76955;SDS011;65894;53.206;-6.108;2023-02-28T17:38:34;10.23;;;2.58;;
76955;SDS011;65894;53.206;-6.108;2023-02-28T17:40:59;12.65;;;2.03;;
76955;SDS011;65894;53.206;-6.108;2023-02-28T17:43:26;10.40;;;1.60;;
76955;SDS011;65894;53.206;-6.108;2023-02-28T17:45:51;7.22;;;1.30;;
76955;SDS011;65894;53.206;-6.108;2023-02-28T17:48:18;8.20;;;1.67;;
76955;SDS011;65894;53.206;-6.108;2023-02-28T17:50:43;13.05;;;1.63;;